createdAt,value
2023-03-04T00:08:09.175Z,7.13
2023-03-04T00:18:30.637Z,7.13
2023-03-04T00:28:52.033Z,7.12
2023-03-04T00:39:13.686Z,7.09
2023-03-04T00:49:35.083Z,7.11
2023-03-04T00:59:56.457Z,7.10
2023-03-04T01:10:17.938Z,7.13
2023-03-04T01:20:39.382Z,7.13
2023-03-04T01:31:00.806Z,7.17
2023-03-04T01:41:26.214Z,7.16
2023-03-04T01:51:54.630Z,7.19
2023-03-04T02:02:16.023Z,7.13
2023-03-04T02:12:37.477Z,7.07
2023-03-04T02:22:58.914Z,7.08
2023-03-04T02:33:20.373Z,7.08
2023-03-04T02:43:41.786Z,7.06
2023-03-04T02:54:03.625Z,7.08
2023-03-04T03:04:25.723Z,7.05
2023-03-04T03:14:47.070Z,6.99
2023-03-04T03:25:09.307Z,6.99
2023-03-04T03:35:30.758Z,6.99
2023-03-04T03:45:52.262Z,6.93
2023-03-04T03:56:13.676Z,6.90
2023-03-04T04:06:35.126Z,6.88
2023-03-04T04:16:56.523Z,6.84
2023-03-04T04:27:17.941Z,6.75
2023-03-04T04:37:39.283Z,6.71
2023-03-04T04:48:03.852Z,6.73
2023-03-04T04:58:25.229Z,6.66
2023-03-04T05:08:46.678Z,6.62
2023-03-04T05:19:08.216Z,6.53
2023-03-04T05:29:29.568Z,6.47
2023-03-04T05:39:50.911Z,6.42
2023-03-04T05:50:12.328Z,6.45
2023-03-04T06:00:33.887Z,6.42
2023-03-04T06:10:56.408Z,6.44
2023-03-04T06:21:17.791Z,6.46
2023-03-04T06:31:41.721Z,6.45
2023-03-04T06:42:03.163Z,6.54
2023-03-04T06:52:24.655Z,6.58
2023-03-04T07:02:46.058Z,6.62
2023-03-04T07:13:07.454Z,6.72
2023-03-04T07:23:28.821Z,6.81
2023-03-04T07:33:50.862Z,6.86
2023-03-04T07:44:13.437Z,6.89
2023-03-04T07:54:34.877Z,6.93
2023-03-04T08:04:56.247Z,6.95
2023-03-04T08:15:17.689Z,6.94
2023-03-04T08:25:40.370Z,7.04
2023-03-04T08:36:01.768Z,7.11
2023-03-04T08:46:23.230Z,7.19
2023-03-04T08:56:44.651Z,7.22
2023-03-04T09:07:06.116Z,7.34
2023-03-04T09:17:27.504Z,7.21
2023-03-04T09:27:49.072Z,7.06
2023-03-04T09:38:12.815Z,6.92
2023-03-04T09:48:39.708Z,7.09
2023-03-04T09:59:36.755Z,7.19
2023-03-04T10:10:07.180Z,6.93
2023-03-04T10:20:32.892Z,6.84
2023-03-04T10:31:23.703Z,6.99
2023-03-04T10:41:46.276Z,7.19
2023-03-04T10:52:27.221Z,7.31
2023-03-04T11:02:49.279Z,7.30
2023-03-04T11:13:18.216Z,6.71
2023-03-04T11:23:43.209Z,6.81
2023-03-04T11:34:04.552Z,6.97
2023-03-04T11:44:25.921Z,7.24
2023-03-04T11:55:06.430Z,7.46
2023-03-04T12:05:35.083Z,7.49
2023-03-04T12:16:02.519Z,7.56
2023-03-04T12:26:27.004Z,7.27
2023-03-04T12:37:07.902Z,7.34
2023-03-04T12:47:52.714Z,7.51
2023-03-04T12:58:22.765Z,7.67
2023-03-04T13:09:02.550Z,7.62
2023-03-04T13:19:42.844Z,7.27
2023-03-04T13:30:24.262Z,7.24
2023-03-04T13:41:05.834Z,7.36
2023-03-04T13:51:47.453Z,7.36
2023-03-04T14:12:50.035Z,7.24
2023-03-04T14:23:26.676Z,7.18
2023-03-04T14:33:54.245Z,6.72
2023-03-04T14:44:15.585Z,6.73
2023-03-04T14:54:36.982Z,6.83
2023-03-04T15:05:16.185Z,6.90
2023-03-04T15:15:39.888Z,6.95
2023-03-04T15:26:02.702Z,6.95
2023-03-04T15:36:24.349Z,6.96
2023-03-04T15:46:45.715Z,6.84
2023-03-04T15:57:09.136Z,6.87
2023-03-04T16:07:30.728Z,6.64
2023-03-04T16:17:52.304Z,6.15
2023-03-04T16:28:14.009Z,6.13
2023-03-04T16:38:35.407Z,6.07
2023-03-04T16:48:56.782Z,5.98
2023-03-04T16:59:18.174Z,5.97
2023-03-04T17:09:39.680Z,5.98
2023-03-04T17:20:10.032Z,5.87
2023-03-04T17:30:31.475Z,5.77
2023-03-04T17:40:52.998Z,5.72
2023-03-04T17:51:14.860Z,5.56
2023-03-04T18:01:36.269Z,5.48
2023-03-04T18:11:57.691Z,5.46
2023-03-04T18:22:19.110Z,5.37
2023-03-04T18:32:51.726Z,5.34
2023-03-04T18:43:13.740Z,5.29
2023-03-04T18:53:35.283Z,5.25
2023-03-04T19:03:59.089Z,5.36
2023-03-04T19:14:20.527Z,5.33
2023-03-04T19:24:41.939Z,5.34
2023-03-04T19:35:03.400Z,5.26
2023-03-04T19:45:25.494Z,5.23
2023-03-04T19:55:49.060Z,5.22
2023-03-04T20:06:10.420Z,5.13
2023-03-04T20:16:32.320Z,5.09
2023-03-04T20:26:53.786Z,5.05
2023-03-04T20:37:15.177Z,5.05
2023-03-04T20:47:39.496Z,4.97
2023-03-04T20:58:01.006Z,4.90
2023-03-04T21:08:22.413Z,4.95
2023-03-04T21:18:44.305Z,4.94
2023-03-04T21:29:05.762Z,4.89
2023-03-04T21:39:27.239Z,4.89
2023-03-04T21:49:48.831Z,4.90
2023-03-04T22:00:10.665Z,4.90
2023-03-04T22:10:32.035Z,4.86
2023-03-04T22:20:59.160Z,4.88
2023-03-04T22:31:29.671Z,4.83
2023-03-04T22:41:51.044Z,4.86
2023-03-04T22:52:12.401Z,4.81
2023-03-04T23:02:33.833Z,4.78
2023-03-04T23:12:55.218Z,4.73
2023-03-04T23:23:16.595Z,4.68
2023-03-04T23:33:39.490Z,4.66
2023-03-04T23:44:01.442Z,4.56
2023-03-04T23:54:22.827Z,4.46
